sensor_id;sensor_type;location;lat;lon;timestamp;temperature;humidity
32522;DHT22;18963;51.504;5.316;2022-10-16T00:01:22;11.40;99.90
32522;DHT22;18963;51.504;5.316;2022-10-16T00:03:49;11.40;99.90
32522;DHT22;18963;51.504;5.316;2022-10-16T00:06:16;11.30;99.90
32522;DHT22;18963;51.504;5.316;2022-10-16T00:08:43;11.30;99.90
32522;DHT22;18963;51.504;5.316;2022-10-16T00:11:18;11.30;99.90
32522;DHT22;18963;51.504;5.316;2022-10-16T00:13:45;11.30;99.90
32522;DHT22;18963;51.504;5.316;2022-10-16T00:16:12;11.30;99.90
32522;DHT22;18963;51.504;5.316;2022-10-16T00:18:39;11.30;99.90
32522;DHT22;18963;51.504;5.316;2022-10-16T00:21:10;11.20;99.90
32522;DHT22;18963;51.504;5.316;2022-10-16T00:23:36;11.20;99.90
32522;DHT22;18963;51.504;5.316;2022-10-16T00:26:05;11.20;99.90
32522;DHT22;18963;51.504;5.316;2022-10-16T00:28:31;11.10;99.90
32522;DHT22;18963;51.504;5.316;2022-10-16T00:30:57;11.10;99.90
32522;DHT22;18963;51.504;5.316;2022-10-16T00:33:23;11.10;99.90
32522;DHT22;18963;51.504;5.316;2022-10-16T00:35:49;11.00;99.90
32522;DHT22;18963;51.504;5.316;2022-10-16T00:38:15;11.00;99.90
32522;DHT22;18963;51.504;5.316;2022-10-16T00:40:41;11.10;99.90
32522;DHT22;18963;51.504;5.316;2022-10-16T00:43:13;11.00;99.90
32522;DHT22;18963;51.504;5.316;2022-10-16T00:45:39;11.00;99.90
32522;DHT22;18963;51.504;5.316;2022-10-16T00:48:11;11.00;99.90
32522;DHT22;18963;51.504;5.316;2022-10-16T00:50:38;11.00;99.90
32522;DHT22;18963;51.504;5.316;2022-10-16T00:53:05;11.00;99.90
32522;DHT22;18963;51.504;5.316;2022-10-16T00:55:30;11.00;99.90
32522;DHT22;18963;51.504;5.316;2022-10-16T00:57:57;11.00;99.90
32522;DHT22;18963;51.504;5.316;2022-10-16T01:00:25;11.00;99.90
32522;DHT22;18963;51.504;5.316;2022-10-16T01:02:56;11.00;99.90
32522;DHT22;18963;51.504;5.316;2022-10-16T01:05:46;11.00;99.90
32522;DHT22;18963;51.504;5.316;2022-10-16T01:08:19;11.00;99.90
32522;DHT22;18963;51.504;5.316;2022-10-16T01:10:51;11.00;99.90
32522;DHT22;18963;51.504;5.316;2022-10-16T01:13:25;11.00;99.90
32522;DHT22;18963;51.504;5.316;2022-10-16T01:16:05;10.90;99.90
32522;DHT22;18963;51.504;5.316;2022-10-16T01:18:34;10.90;99.90
32522;DHT22;18963;51.504;5.316;2022-10-16T01:21:05;10.90;99.90
32522;DHT22;18963;51.504;5.316;2022-10-16T01:31:48;10.80;99.90
32522;DHT22;18963;51.504;5.316;2022-10-16T01:34:22;10.80;99.90
32522;DHT22;18963;51.504;5.316;2022-10-16T01:36:53;10.90;99.90
32522;DHT22;18963;51.504;5.316;2022-10-16T01:39:24;10.90;99.90
32522;DHT22;18963;51.504;5.316;2022-10-16T01:42:12;11.00;99.90
32522;DHT22;18963;51.504;5.316;2022-10-16T01:44:39;11.00;99.90
32522;DHT22;18963;51.504;5.316;2022-10-16T01:47:08;11.10;99.90
32522;DHT22;18963;51.504;5.316;2022-10-16T01:49:36;11.10;99.90
32522;DHT22;18963;51.504;5.316;2022-10-16T01:52:06;11.20;99.90
32522;DHT22;18963;51.504;5.316;2022-10-16T01:54:37;11.20;99.90
32522;DHT22;18963;51.504;5.316;2022-10-16T01:57:04;11.30;99.90
32522;DHT22;18963;51.504;5.316;2022-10-16T01:59:32;11.30;99.90
32522;DHT22;18963;51.504;5.316;2022-10-16T02:02:00;11.30;99.90
32522;DHT22;18963;51.504;5.316;2022-10-16T02:04:39;11.40;99.90
32522;DHT22;18963;51.504;5.316;2022-10-16T02:07:06;11.40;99.90
32522;DHT22;18963;51.504;5.316;2022-10-16T02:09:35;11.40;99.90
32522;DHT22;18963;51.504;5.316;2022-10-16T02:12:10;11.50;99.90
32522;DHT22;18963;51.504;5.316;2022-10-16T02:14:38;11.40;99.90
32522;DHT22;18963;51.504;5.316;2022-10-16T02:17:16;11.40;99.90
32522;DHT22;18963;51.504;5.316;2022-10-16T02:19:43;11.40;99.90
32522;DHT22;18963;51.504;5.316;2022-10-16T02:22:17;11.40;99.90
32522;DHT22;18963;51.504;5.316;2022-10-16T02:24:54;11.40;99.90
32522;DHT22;18963;51.504;5.316;2022-10-16T02:30:14;11.40;99.90
32522;DHT22;18963;51.504;5.316;2022-10-16T02:32:45;11.30;99.90
32522;DHT22;18963;51.504;5.316;2022-10-16T02:35:12;11.30;99.90
32522;DHT22;18963;51.504;5.316;2022-10-16T02:37:38;11.30;99.90
32522;DHT22;18963;51.504;5.316;2022-10-16T02:40:06;11.30;99.90
32522;DHT22;18963;51.504;5.316;2022-10-16T02:42:37;11.30;99.90
32522;DHT22;18963;51.504;5.316;2022-10-16T02:45:07;11.30;99.90
32522;DHT22;18963;51.504;5.316;2022-10-16T02:47:33;11.30;99.90
32522;DHT22;18963;51.504;5.316;2022-10-16T02:49:59;11.30;99.90
32522;DHT22;18963;51.504;5.316;2022-10-16T02:52:25;11.30;99.90
32522;DHT22;18963;51.504;5.316;2022-10-16T02:54:50;11.20;99.90
32522;DHT22;18963;51.504;5.316;2022-10-16T02:57:17;11.20;99.90
32522;DHT22;18963;51.504;5.316;2022-10-16T02:59:43;11.20;99.90
32522;DHT22;18963;51.504;5.316;2022-10-16T03:02:09;11.20;99.90
32522;DHT22;18963;51.504;5.316;2022-10-16T03:04:34;11.20;99.90
32522;DHT22;18963;51.504;5.316;2022-10-16T03:07:00;11.20;99.90
32522;DHT22;18963;51.504;5.316;2022-10-16T03:09:25;11.10;99.90
32522;DHT22;18963;51.504;5.316;2022-10-16T03:11:51;11.10;99.90
32522;DHT22;18963;51.504;5.316;2022-10-16T03:14:17;11.10;99.90
32522;DHT22;18963;51.504;5.316;2022-10-16T03:16:43;11.10;99.90
32522;DHT22;18963;51.504;5.316;2022-10-16T03:19:08;11.10;99.90
32522;DHT22;18963;51.504;5.316;2022-10-16T03:21:34;11.00;99.90
32522;DHT22;18963;51.504;5.316;2022-10-16T03:23:59;11.00;99.90
32522;DHT22;18963;51.504;5.316;2022-10-16T03:26:25;11.00;99.90
32522;DHT22;18963;51.504;5.316;2022-10-16T03:28:51;11.10;99.90
32522;DHT22;18963;51.504;5.316;2022-10-16T03:31:16;11.10;99.90
32522;DHT22;18963;51.504;5.316;2022-10-16T03:33:42;11.10;99.90
32522;DHT22;18963;51.504;5.316;2022-10-16T03:36:07;11.10;99.90
32522;DHT22;18963;51.504;5.316;2022-10-16T03:38:33;11.10;99.90
32522;DHT22;18963;51.504;5.316;2022-10-16T03:40:58;11.10;99.90
32522;DHT22;18963;51.504;5.316;2022-10-16T03:43:24;11.20;99.90
32522;DHT22;18963;51.504;5.316;2022-10-16T03:45:51;11.20;99.90
32522;DHT22;18963;51.504;5.316;2022-10-16T03:48:17;11.20;99.90
32522;DHT22;18963;51.504;5.316;2022-10-16T03:50:43;11.20;99.90
32522;DHT22;18963;51.504;5.316;2022-10-16T03:53:09;11.20;99.90
32522;DHT22;18963;51.504;5.316;2022-10-16T03:55:34;11.20;99.90
32522;DHT22;18963;51.504;5.316;2022-10-16T03:58:00;11.20;99.90
32522;DHT22;18963;51.504;5.316;2022-10-16T04:00:26;11.20;99.90
32522;DHT22;18963;51.504;5.316;2022-10-16T04:02:51;11.30;99.90
32522;DHT22;18963;51.504;5.316;2022-10-16T04:05:17;11.30;99.90
32522;DHT22;18963;51.504;5.316;2022-10-16T04:07:42;11.40;99.90
32522;DHT22;18963;51.504;5.316;2022-10-16T04:10:08;11.40;99.90
32522;DHT22;18963;51.504;5.316;2022-10-16T04:12:34;11.40;99.90
32522;DHT22;18963;51.504;5.316;2022-10-16T04:14:59;11.40;99.90
32522;DHT22;18963;51.504;5.316;2022-10-16T04:17:25;11.50;99.90
32522;DHT22;18963;51.504;5.316;2022-10-16T04:19:51;11.40;99.90
32522;DHT22;18963;51.504;5.316;2022-10-16T04:22:16;11.50;99.90
32522;DHT22;18963;51.504;5.316;2022-10-16T04:24:42;11.50;99.90
32522;DHT22;18963;51.504;5.316;2022-10-16T04:27:07;11.50;99.90
32522;DHT22;18963;51.504;5.316;2022-10-16T04:29:33;11.50;99.90
32522;DHT22;18963;51.504;5.316;2022-10-16T04:31:58;11.50;99.90
32522;DHT22;18963;51.504;5.316;2022-10-16T04:34:24;11.50;99.90
32522;DHT22;18963;51.504;5.316;2022-10-16T04:36:50;11.50;99.90
32522;DHT22;18963;51.504;5.316;2022-10-16T04:39:15;11.50;99.90
32522;DHT22;18963;51.504;5.316;2022-10-16T04:41:41;11.50;99.90
32522;DHT22;18963;51.504;5.316;2022-10-16T04:44:07;11.50;99.90
32522;DHT22;18963;51.504;5.316;2022-10-16T04:46:33;11.50;99.90
32522;DHT22;18963;51.504;5.316;2022-10-16T04:48:59;11.50;99.90
32522;DHT22;18963;51.504;5.316;2022-10-16T04:51:25;11.50;99.90
32522;DHT22;18963;51.504;5.316;2022-10-16T04:53:51;11.50;99.90
32522;DHT22;18963;51.504;5.316;2022-10-16T04:56:17;11.50;99.90
32522;DHT22;18963;51.504;5.316;2022-10-16T04:58:42;11.50;99.90
32522;DHT22;18963;51.504;5.316;2022-10-16T05:01:08;11.50;99.90
32522;DHT22;18963;51.504;5.316;2022-10-16T05:03:34;11.40;99.90
32522;DHT22;18963;51.504;5.316;2022-10-16T05:06:00;11.40;99.90
32522;DHT22;18963;51.504;5.316;2022-10-16T05:08:25;11.40;99.90
32522;DHT22;18963;51.504;5.316;2022-10-16T05:10:51;11.40;99.90
32522;DHT22;18963;51.504;5.316;2022-10-16T05:13:16;11.40;99.90
32522;DHT22;18963;51.504;5.316;2022-10-16T05:15:46;11.40;99.90
32522;DHT22;18963;51.504;5.316;2022-10-16T05:18:11;11.40;99.90
32522;DHT22;18963;51.504;5.316;2022-10-16T05:20:37;11.30;99.90
32522;DHT22;18963;51.504;5.316;2022-10-16T05:23:02;11.30;99.90
32522;DHT22;18963;51.504;5.316;2022-10-16T05:25:28;11.30;99.90
32522;DHT22;18963;51.504;5.316;2022-10-16T05:27:53;11.30;99.90
32522;DHT22;18963;51.504;5.316;2022-10-16T05:30:19;11.30;99.90
32522;DHT22;18963;51.504;5.316;2022-10-16T05:32:49;11.30;99.90
32522;DHT22;18963;51.504;5.316;2022-10-16T05:35:16;11.30;99.90
32522;DHT22;18963;51.504;5.316;2022-10-16T05:37:42;11.30;99.90
32522;DHT22;18963;51.504;5.316;2022-10-16T05:40:08;11.20;99.90
32522;DHT22;18963;51.504;5.316;2022-10-16T05:42:33;11.20;99.90
32522;DHT22;18963;51.504;5.316;2022-10-16T05:44:59;11.20;99.90
32522;DHT22;18963;51.504;5.316;2022-10-16T05:47:25;11.10;99.90
32522;DHT22;18963;51.504;5.316;2022-10-16T05:49:50;11.20;99.90
32522;DHT22;18963;51.504;5.316;2022-10-16T05:52:16;11.10;99.90
32522;DHT22;18963;51.504;5.316;2022-10-16T05:54:41;11.20;99.90
32522;DHT22;18963;51.504;5.316;2022-10-16T05:57:07;11.20;99.90
32522;DHT22;18963;51.504;5.316;2022-10-16T05:59:32;11.10;99.90
32522;DHT22;18963;51.504;5.316;2022-10-16T06:01:58;11.10;99.90
32522;DHT22;18963;51.504;5.316;2022-10-16T06:04:23;11.20;99.90
32522;DHT22;18963;51.504;5.316;2022-10-16T06:06:49;11.20;99.90
32522;DHT22;18963;51.504;5.316;2022-10-16T06:09:14;11.20;99.90
32522;DHT22;18963;51.504;5.316;2022-10-16T06:11:40;11.20;99.90
32522;DHT22;18963;51.504;5.316;2022-10-16T06:14:06;11.20;99.90
32522;DHT22;18963;51.504;5.316;2022-10-16T06:16:36;11.10;99.90
32522;DHT22;18963;51.504;5.316;2022-10-16T06:19:02;11.10;99.90
32522;DHT22;18963;51.504;5.316;2022-10-16T06:21:31;11.10;99.90
32522;DHT22;18963;51.504;5.316;2022-10-16T06:23:57;11.10;99.90
32522;DHT22;18963;51.504;5.316;2022-10-16T06:26:25;11.10;99.90
32522;DHT22;18963;51.504;5.316;2022-10-16T06:28:51;11.10;99.90
32522;DHT22;18963;51.504;5.316;2022-10-16T06:31:16;11.10;99.90
32522;DHT22;18963;51.504;5.316;2022-10-16T06:33:43;11.10;99.90
32522;DHT22;18963;51.504;5.316;2022-10-16T06:36:14;11.10;99.90
32522;DHT22;18963;51.504;5.316;2022-10-16T06:38:41;11.10;99.90
32522;DHT22;18963;51.504;5.316;2022-10-16T06:41:08;11.10;99.90
32522;DHT22;18963;51.504;5.316;2022-10-16T06:43:34;11.10;99.90
32522;DHT22;18963;51.504;5.316;2022-10-16T06:46:04;11.10;99.90
32522;DHT22;18963;51.504;5.316;2022-10-16T06:48:30;11.20;99.90
32522;DHT22;18963;51.504;5.316;2022-10-16T06:50:59;11.30;99.90
32522;DHT22;18963;51.504;5.316;2022-10-16T06:53:26;11.40;99.90
32522;DHT22;18963;51.504;5.316;2022-10-16T06:55:52;11.60;99.90
32522;DHT22;18963;51.504;5.316;2022-10-16T06:58:17;11.70;99.90
32522;DHT22;18963;51.504;5.316;2022-10-16T07:00:43;11.80;99.90
32522;DHT22;18963;51.504;5.316;2022-10-16T07:03:09;12.00;99.90
32522;DHT22;18963;51.504;5.316;2022-10-16T07:05:38;12.20;99.90
32522;DHT22;18963;51.504;5.316;2022-10-16T07:08:04;12.40;99.90
32522;DHT22;18963;51.504;5.316;2022-10-16T07:10:31;12.60;99.90
32522;DHT22;18963;51.504;5.316;2022-10-16T07:12:56;12.70;99.90
32522;DHT22;18963;51.504;5.316;2022-10-16T07:15:22;12.90;99.90
32522;DHT22;18963;51.504;5.316;2022-10-16T07:17:48;13.10;99.90
32522;DHT22;18963;51.504;5.316;2022-10-16T07:20:14;13.30;99.90
32522;DHT22;18963;51.504;5.316;2022-10-16T07:22:39;13.50;99.90
32522;DHT22;18963;51.504;5.316;2022-10-16T07:25:05;13.60;99.90
32522;DHT22;18963;51.504;5.316;2022-10-16T07:27:31;13.80;99.90
32522;DHT22;18963;51.504;5.316;2022-10-16T07:29:57;13.90;99.90
32522;DHT22;18963;51.504;5.316;2022-10-16T07:32:22;14.00;99.90
32522;DHT22;18963;51.504;5.316;2022-10-16T07:34:49;14.10;99.90
32522;DHT22;18963;51.504;5.316;2022-10-16T07:37:14;14.20;99.90
32522;DHT22;18963;51.504;5.316;2022-10-16T07:39:40;14.30;99.90
32522;DHT22;18963;51.504;5.316;2022-10-16T07:42:05;14.50;99.90
32522;DHT22;18963;51.504;5.316;2022-10-16T07:44:31;14.60;99.90
32522;DHT22;18963;51.504;5.316;2022-10-16T07:46:56;14.80;99.90
32522;DHT22;18963;51.504;5.316;2022-10-16T07:49:23;14.90;99.90
32522;DHT22;18963;51.504;5.316;2022-10-16T07:51:48;15.00;99.90
32522;DHT22;18963;51.504;5.316;2022-10-16T07:54:14;15.10;99.90
32522;DHT22;18963;51.504;5.316;2022-10-16T07:56:39;15.30;99.90
32522;DHT22;18963;51.504;5.316;2022-10-16T07:59:05;15.40;99.90
32522;DHT22;18963;51.504;5.316;2022-10-16T08:01:30;15.50;99.90
32522;DHT22;18963;51.504;5.316;2022-10-16T08:03:56;15.60;99.90
32522;DHT22;18963;51.504;5.316;2022-10-16T08:06:22;15.70;99.90
32522;DHT22;18963;51.504;5.316;2022-10-16T08:08:48;15.80;99.90
32522;DHT22;18963;51.504;5.316;2022-10-16T08:11:14;15.90;99.90
32522;DHT22;18963;51.504;5.316;2022-10-16T08:13:40;15.90;99.90
32522;DHT22;18963;51.504;5.316;2022-10-16T08:16:06;16.10;99.90
32522;DHT22;18963;51.504;5.316;2022-10-16T08:18:34;16.10;99.90
32522;DHT22;18963;51.504;5.316;2022-10-16T08:21:01;16.30;99.90
32522;DHT22;18963;51.504;5.316;2022-10-16T08:23:27;16.40;99.90
32522;DHT22;18963;51.504;5.316;2022-10-16T08:25:54;16.50;99.90
32522;DHT22;18963;51.504;5.316;2022-10-16T08:28:20;16.50;99.90
32522;DHT22;18963;51.504;5.316;2022-10-16T08:30:46;16.60;99.90
32522;DHT22;18963;51.504;5.316;2022-10-16T08:33:11;16.70;99.90
32522;DHT22;18963;51.504;5.316;2022-10-16T08:35:37;16.90;99.90
32522;DHT22;18963;51.504;5.316;2022-10-16T08:38:03;17.00;99.90
32522;DHT22;18963;51.504;5.316;2022-10-16T08:40:31;17.10;99.90
32522;DHT22;18963;51.504;5.316;2022-10-16T08:48:56;17.40;99.90
32522;DHT22;18963;51.504;5.316;2022-10-16T08:51:32;17.60;99.90
32522;DHT22;18963;51.504;5.316;2022-10-16T08:54:03;17.70;99.90
32522;DHT22;18963;51.504;5.316;2022-10-16T08:56:29;17.90;99.90
32522;DHT22;18963;51.504;5.316;2022-10-16T08:58:57;18.10;99.90
32522;DHT22;18963;51.504;5.316;2022-10-16T09:01:25;18.20;99.90
32522;DHT22;18963;51.504;5.316;2022-10-16T09:07:35;18.50;99.90
32522;DHT22;18963;51.504;5.316;2022-10-16T09:13:03;18.70;99.90
32522;DHT22;18963;51.504;5.316;2022-10-16T09:15:36;18.70;99.90
32522;DHT22;18963;51.504;5.316;2022-10-16T09:18:29;18.80;99.90
32522;DHT22;18963;51.504;5.316;2022-10-16T09:21:20;18.80;99.90
32522;DHT22;18963;51.504;5.316;2022-10-16T09:23:47;19.00;99.90
32522;DHT22;18963;51.504;5.316;2022-10-16T09:26:13;19.10;99.90
32522;DHT22;18963;51.504;5.316;2022-10-16T09:28:40;19.30;99.90
32522;DHT22;18963;51.504;5.316;2022-10-16T09:31:16;19.40;99.90
32522;DHT22;18963;51.504;5.316;2022-10-16T09:33:43;19.50;99.90
32522;DHT22;18963;51.504;5.316;2022-10-16T09:36:10;19.60;99.90
32522;DHT22;18963;51.504;5.316;2022-10-16T09:38:37;19.60;99.90
32522;DHT22;18963;51.504;5.316;2022-10-16T09:41:17;19.60;99.90
32522;DHT22;18963;51.504;5.316;2022-10-16T09:43:56;19.50;99.90
32522;DHT22;18963;51.504;5.316;2022-10-16T09:48:54;19.30;99.90
32522;DHT22;18963;51.504;5.316;2022-10-16T09:51:26;19.30;99.90
32522;DHT22;18963;51.504;5.316;2022-10-16T09:56:34;19.10;99.90
32522;DHT22;18963;51.504;5.316;2022-10-16T09:59:10;19.10;99.90
32522;DHT22;18963;51.504;5.316;2022-10-16T10:04:04;18.90;99.90
32522;DHT22;18963;51.504;5.316;2022-10-16T10:06:34;19.00;99.90
32522;DHT22;18963;51.504;5.316;2022-10-16T10:09:16;19.10;99.90
32522;DHT22;18963;51.504;5.316;2022-10-16T10:11:57;19.40;99.90
32522;DHT22;18963;51.504;5.316;2022-10-16T10:14:36;19.40;99.90
32522;DHT22;18963;51.504;5.316;2022-10-16T10:22:42;19.80;99.90
32522;DHT22;18963;51.504;5.316;2022-10-16T10:36:28;20.70;99.90
32522;DHT22;18963;51.504;5.316;2022-10-16T10:39:17;20.80;99.90
32522;DHT22;18963;51.504;5.316;2022-10-16T10:44:36;21.20;99.90
32522;DHT22;18963;51.504;5.316;2022-10-16T10:55:36;21.90;99.90
32522;DHT22;18963;51.504;5.316;2022-10-16T11:06:20;22.60;99.90
32522;DHT22;18963;51.504;5.316;2022-10-16T11:11:41;23.70;98.90
32522;DHT22;18963;51.504;5.316;2022-10-16T11:14:22;24.00;97.70
32522;DHT22;18963;51.504;5.316;2022-10-16T11:30:27;25.30;93.00
32522;DHT22;18963;51.504;5.316;2022-10-16T11:32:56;25.20;91.70
32522;DHT22;18963;51.504;5.316;2022-10-16T11:44:27;23.30;94.40
32522;DHT22;18963;51.504;5.316;2022-10-16T11:49:39;22.40;96.10
32522;DHT22;18963;51.504;5.316;2022-10-16T11:52:25;22.00;98.70
32522;DHT22;18963;51.504;5.316;2022-10-16T11:55:03;21.40;98.30
32522;DHT22;18963;51.504;5.316;2022-10-16T11:57:39;21.10;99.90
32522;DHT22;18963;51.504;5.316;2022-10-16T12:00:18;20.70;99.90
32522;DHT22;18963;51.504;5.316;2022-10-16T12:08:20;20.60;99.90
32522;DHT22;18963;51.504;5.316;2022-10-16T12:10:47;20.70;99.90
32522;DHT22;18963;51.504;5.316;2022-10-16T12:13:36;20.60;99.90
32522;DHT22;18963;51.504;5.316;2022-10-16T12:18:44;20.20;99.90
32522;DHT22;18963;51.504;5.316;2022-10-16T12:21:11;20.10;99.90
32522;DHT22;18963;51.504;5.316;2022-10-16T12:23:54;19.80;99.90
32522;DHT22;18963;51.504;5.316;2022-10-16T12:26:26;19.70;99.90
32522;DHT22;18963;51.504;5.316;2022-10-16T12:28:54;19.60;99.90
32522;DHT22;18963;51.504;5.316;2022-10-16T12:31:20;19.40;99.90
32522;DHT22;18963;51.504;5.316;2022-10-16T12:33:59;19.40;99.90
32522;DHT22;18963;51.504;5.316;2022-10-16T12:38:53;19.20;99.90
32522;DHT22;18963;51.504;5.316;2022-10-16T12:41:28;19.20;99.90
32522;DHT22;18963;51.504;5.316;2022-10-16T12:43:55;19.30;99.90
32522;DHT22;18963;51.504;5.316;2022-10-16T12:51:38;19.60;99.90
32522;DHT22;18963;51.504;5.316;2022-10-16T12:54:10;19.70;99.90
32522;DHT22;18963;51.504;5.316;2022-10-16T13:08:04;19.50;99.90
32522;DHT22;18963;51.504;5.316;2022-10-16T13:27:09;18.70;99.90
32522;DHT22;18963;51.504;5.316;2022-10-16T13:29:38;18.70;99.90
32522;DHT22;18963;51.504;5.316;2022-10-16T13:32:10;18.70;99.90
32522;DHT22;18963;51.504;5.316;2022-10-16T13:34:47;18.70;99.90
32522;DHT22;18963;51.504;5.316;2022-10-16T13:37:18;18.70;99.90
32522;DHT22;18963;51.504;5.316;2022-10-16T13:39:44;18.70;99.90
32522;DHT22;18963;51.504;5.316;2022-10-16T13:42:14;18.80;99.90
32522;DHT22;18963;51.504;5.316;2022-10-16T13:44:49;18.80;99.90
32522;DHT22;18963;51.504;5.316;2022-10-16T13:47:20;18.80;99.90
32522;DHT22;18963;51.504;5.316;2022-10-16T13:49:48;18.80;99.90
32522;DHT22;18963;51.504;5.316;2022-10-16T13:52:23;18.90;99.90
32522;DHT22;18963;51.504;5.316;2022-10-16T13:54:49;18.90;99.90
32522;DHT22;18963;51.504;5.316;2022-10-16T13:57:16;18.80;99.90
32522;DHT22;18963;51.504;5.316;2022-10-16T13:59:42;18.80;99.90
32522;DHT22;18963;51.504;5.316;2022-10-16T14:02:25;18.90;99.90
32522;DHT22;18963;51.504;5.316;2022-10-16T14:04:52;18.90;99.90
32522;DHT22;18963;51.504;5.316;2022-10-16T14:07:24;18.80;99.90
32522;DHT22;18963;51.504;5.316;2022-10-16T14:09:51;18.80;99.90
32522;DHT22;18963;51.504;5.316;2022-10-16T14:12:17;18.80;99.90
32522;DHT22;18963;51.504;5.316;2022-10-16T14:14:46;18.70;99.90
32522;DHT22;18963;51.504;5.316;2022-10-16T14:17:16;18.70;99.90
32522;DHT22;18963;51.504;5.316;2022-10-16T14:19:47;18.70;99.90
32522;DHT22;18963;51.504;5.316;2022-10-16T14:22:36;18.60;99.90
32522;DHT22;18963;51.504;5.316;2022-10-16T14:28:26;18.40;99.90
32522;DHT22;18963;51.504;5.316;2022-10-16T14:30:59;18.40;99.90
32522;DHT22;18963;51.504;5.316;2022-10-16T14:38:36;18.30;99.90
32522;DHT22;18963;51.504;5.316;2022-10-16T14:41:03;18.30;99.90
32522;DHT22;18963;51.504;5.316;2022-10-16T14:43:42;18.30;99.90
32522;DHT22;18963;51.504;5.316;2022-10-16T14:46:18;18.30;99.90
32522;DHT22;18963;51.504;5.316;2022-10-16T14:48:46;18.30;99.90
32522;DHT22;18963;51.504;5.316;2022-10-16T14:51:16;18.30;99.90
32522;DHT22;18963;51.504;5.316;2022-10-16T14:53:42;18.40;99.90
32522;DHT22;18963;51.504;5.316;2022-10-16T14:56:41;18.40;99.90
32522;DHT22;18963;51.504;5.316;2022-10-16T14:59:15;18.40;99.90
32522;DHT22;18963;51.504;5.316;2022-10-16T15:01:43;18.50;99.90
32522;DHT22;18963;51.504;5.316;2022-10-16T15:04:11;18.40;99.90
32522;DHT22;18963;51.504;5.316;2022-10-16T15:06:37;18.40;99.90
32522;DHT22;18963;51.504;5.316;2022-10-16T15:09:03;18.40;99.90
32522;DHT22;18963;51.504;5.316;2022-10-16T15:11:31;18.30;99.90
32522;DHT22;18963;51.504;5.316;2022-10-16T15:13:57;18.20;99.90
32522;DHT22;18963;51.504;5.316;2022-10-16T15:16:23;18.10;99.90
32522;DHT22;18963;51.504;5.316;2022-10-16T15:18:49;18.10;99.90
32522;DHT22;18963;51.504;5.316;2022-10-16T15:21:29;18.00;99.90
32522;DHT22;18963;51.504;5.316;2022-10-16T15:23:55;18.00;99.90
32522;DHT22;18963;51.504;5.316;2022-10-16T15:26:23;17.90;99.90
32522;DHT22;18963;51.504;5.316;2022-10-16T15:28:48;17.80;99.90
32522;DHT22;18963;51.504;5.316;2022-10-16T15:31:14;17.60;99.90
32522;DHT22;18963;51.504;5.316;2022-10-16T15:33:40;17.60;99.90
32522;DHT22;18963;51.504;5.316;2022-10-16T15:36:06;17.50;99.90
32522;DHT22;18963;51.504;5.316;2022-10-16T15:38:31;17.40;99.90
32522;DHT22;18963;51.504;5.316;2022-10-16T15:40:57;17.30;99.90
32522;DHT22;18963;51.504;5.316;2022-10-16T15:43:22;17.30;99.90
32522;DHT22;18963;51.504;5.316;2022-10-16T15:46:02;17.20;99.90
32522;DHT22;18963;51.504;5.316;2022-10-16T15:48:29;17.10;99.90
32522;DHT22;18963;51.504;5.316;2022-10-16T15:50:55;17.00;99.90
32522;DHT22;18963;51.504;5.316;2022-10-16T15:53:21;17.00;99.90
32522;DHT22;18963;51.504;5.316;2022-10-16T15:55:46;16.90;99.90
32522;DHT22;18963;51.504;5.316;2022-10-16T15:58:12;16.90;99.90
32522;DHT22;18963;51.504;5.316;2022-10-16T16:00:37;16.80;99.90
32522;DHT22;18963;51.504;5.316;2022-10-16T16:03:04;16.70;99.90
32522;DHT22;18963;51.504;5.316;2022-10-16T16:05:29;16.60;99.90
32522;DHT22;18963;51.504;5.316;2022-10-16T16:07:56;16.60;99.90
32522;DHT22;18963;51.504;5.316;2022-10-16T16:10:22;16.50;99.90
32522;DHT22;18963;51.504;5.316;2022-10-16T16:12:48;16.50;99.90
32522;DHT22;18963;51.504;5.316;2022-10-16T16:15:19;16.40;99.90
32522;DHT22;18963;51.504;5.316;2022-10-16T16:17:45;16.40;99.90
32522;DHT22;18963;51.504;5.316;2022-10-16T16:20:11;16.30;99.90
32522;DHT22;18963;51.504;5.316;2022-10-16T16:22:36;16.20;99.90
32522;DHT22;18963;51.504;5.316;2022-10-16T16:25:02;16.20;99.90
32522;DHT22;18963;51.504;5.316;2022-10-16T16:27:28;16.10;99.90
32522;DHT22;18963;51.504;5.316;2022-10-16T16:29:55;16.10;99.90
32522;DHT22;18963;51.504;5.316;2022-10-16T16:32:21;16.00;99.90
32522;DHT22;18963;51.504;5.316;2022-10-16T16:34:47;15.90;99.90
32522;DHT22;18963;51.504;5.316;2022-10-16T16:37:14;15.90;99.90
32522;DHT22;18963;51.504;5.316;2022-10-16T16:39:40;15.90;99.90
32522;DHT22;18963;51.504;5.316;2022-10-16T16:42:06;15.80;99.90
32522;DHT22;18963;51.504;5.316;2022-10-16T16:44:33;15.80;99.90
32522;DHT22;18963;51.504;5.316;2022-10-16T16:47:01;15.70;99.90
32522;DHT22;18963;51.504;5.316;2022-10-16T16:49:27;15.70;99.90
32522;DHT22;18963;51.504;5.316;2022-10-16T16:51:53;15.60;99.90
32522;DHT22;18963;51.504;5.316;2022-10-16T16:54:19;15.60;99.90
32522;DHT22;18963;51.504;5.316;2022-10-16T16:56:45;15.50;99.90
32522;DHT22;18963;51.504;5.316;2022-10-16T16:59:16;15.50;99.90
32522;DHT22;18963;51.504;5.316;2022-10-16T17:01:43;15.50;99.90
32522;DHT22;18963;51.504;5.316;2022-10-16T17:04:09;15.40;99.90
32522;DHT22;18963;51.504;5.316;2022-10-16T17:06:36;15.40;99.90
32522;DHT22;18963;51.504;5.316;2022-10-16T17:09:03;15.40;99.90
32522;DHT22;18963;51.504;5.316;2022-10-16T17:11:29;15.40;99.90
32522;DHT22;18963;51.504;5.316;2022-10-16T17:13:57;15.40;99.90
32522;DHT22;18963;51.504;5.316;2022-10-16T17:16:25;15.40;99.90
32522;DHT22;18963;51.504;5.316;2022-10-16T17:18:51;15.40;99.90
32522;DHT22;18963;51.504;5.316;2022-10-16T17:21:18;15.30;99.90
32522;DHT22;18963;51.504;5.316;2022-10-16T17:23:44;15.20;99.90
32522;DHT22;18963;51.504;5.316;2022-10-16T17:26:13;15.20;99.90
32522;DHT22;18963;51.504;5.316;2022-10-16T17:28:40;15.20;99.90
32522;DHT22;18963;51.504;5.316;2022-10-16T17:31:14;15.10;99.90
32522;DHT22;18963;51.504;5.316;2022-10-16T17:33:41;15.10;99.90
32522;DHT22;18963;51.504;5.316;2022-10-16T17:36:07;15.00;99.90
32522;DHT22;18963;51.504;5.316;2022-10-16T17:38:33;15.00;99.90
32522;DHT22;18963;51.504;5.316;2022-10-16T17:41:10;14.90;99.90
32522;DHT22;18963;51.504;5.316;2022-10-16T17:43:37;14.90;99.90
32522;DHT22;18963;51.504;5.316;2022-10-16T17:46:02;14.90;99.90
32522;DHT22;18963;51.504;5.316;2022-10-16T17:48:28;14.80;99.90
32522;DHT22;18963;51.504;5.316;2022-10-16T17:50:54;14.80;99.90
32522;DHT22;18963;51.504;5.316;2022-10-16T17:53:19;14.80;99.90
32522;DHT22;18963;51.504;5.316;2022-10-16T17:55:45;14.70;99.90
32522;DHT22;18963;51.504;5.316;2022-10-16T17:58:11;14.70;99.90
32522;DHT22;18963;51.504;5.316;2022-10-16T18:00:36;14.70;99.90
32522;DHT22;18963;51.504;5.316;2022-10-16T18:03:02;14.70;99.90
32522;DHT22;18963;51.504;5.316;2022-10-16T18:05:28;14.70;99.90